sensor_id;sensor_type;location;lat;lon;timestamp;P1;durP1;ratioP1;P2;durP2;ratioP2
39344;SDS011;25061;51.954;6.996;2023-11-21T05:30:24;92.20;;;15.95;;
39344;SDS011;25061;51.954;6.996;2023-11-21T05:32:49;48.33;;;16.23;;
39344;SDS011;25061;51.954;6.996;2023-11-21T05:35:15;59.13;;;23.67;;
39344;SDS011;25061;51.954;6.996;2023-11-21T05:37:44;58.15;;;19.85;;
39344;SDS011;25061;51.954;6.996;2023-11-21T05:40:12;65.03;;;20.58;;
39344;SDS011;25061;51.954;6.996;2023-11-21T05:42:38;82.10;;;21.10;;
39344;SDS011;25061;51.954;6.996;2023-11-21T05:45:05;102.53;;;18.30;;
39344;SDS011;25061;51.954;6.996;2023-11-21T05:47:40;49.28;;;16.77;;
39344;SDS011;25061;51.954;6.996;2023-11-21T05:50:08;153.32;;;20.15;;
39344;SDS011;25061;51.954;6.996;2023-11-21T05:52:39;141.47;;;19.27;;
39344;SDS011;25061;51.954;6.996;2023-11-21T05:55:05;55.08;;;18.92;;
39344;SDS011;25061;51.954;6.996;2023-11-21T05:57:35;54.00;;;18.95;;
39344;SDS011;25061;51.954;6.996;2023-11-21T06:00:05;52.88;;;18.48;;
39344;SDS011;25061;51.954;6.996;2023-11-21T06:02:36;161.70;;;21.92;;
39344;SDS011;25061;51.954;6.996;2023-11-21T06:05:08;52.67;;;19.35;;
39344;SDS011;25061;51.954;6.996;2023-11-21T06:07:35;134.07;;;21.60;;
39344;SDS011;25061;51.954;6.996;2023-11-21T06:10:05;71.28;;;19.70;;
39344;SDS011;25061;51.954;6.996;2023-11-21T06:12:35;138.82;;;21.80;;
39344;SDS011;25061;51.954;6.996;2023-11-21T06:15:04;131.88;;;20.23;;
39344;SDS011;25061;51.954;6.996;2023-11-21T06:17:32;128.63;;;20.85;;
39344;SDS011;25061;51.954;6.996;2023-11-21T06:19:58;111.00;;;21.05;;
39344;SDS011;25061;51.954;6.996;2023-11-21T06:22:25;127.05;;;21.17;;
39344;SDS011;25061;51.954;6.996;2023-11-21T06:24:51;131.82;;;20.17;;
39344;SDS011;25061;51.954;6.996;2023-11-21T06:27:17;90.18;;;20.45;;
39344;SDS011;25061;51.954;6.996;2023-11-21T06:29:42;162.77;;;22.50;;
39344;SDS011;25061;51.954;6.996;2023-11-21T06:32:08;80.13;;;21.33;;
39344;SDS011;25061;51.954;6.996;2023-11-21T06:34:34;52.80;;;20.92;;
39344;SDS011;25061;51.954;6.996;2023-11-21T06:36:59;82.38;;;21.23;;
39344;SDS011;25061;51.954;6.996;2023-11-21T06:39:25;50.53;;;20.58;;
39344;SDS011;25061;51.954;6.996;2023-11-21T06:41:51;73.70;;;20.38;;
39344;SDS011;25061;51.954;6.996;2023-11-21T06:44:16;97.32;;;21.70;;
39344;SDS011;25061;51.954;6.996;2023-11-21T06:46:42;113.03;;;21.23;;
39344;SDS011;25061;51.954;6.996;2023-11-21T06:49:08;64.88;;;21.13;;
39344;SDS011;25061;51.954;6.996;2023-11-21T06:51:33;72.78;;;23.02;;
39344;SDS011;25061;51.954;6.996;2023-11-21T06:53:59;63.30;;;20.15;;
39344;SDS011;25061;51.954;6.996;2023-11-21T06:56:25;124.53;;;22.27;;
39344;SDS011;25061;51.954;6.996;2023-11-21T06:58:50;80.80;;;22.52;;
39344;SDS011;25061;51.954;6.996;2023-11-21T07:01:19;63.13;;;21.27;;
39344;SDS011;25061;51.954;6.996;2023-11-21T07:03:44;69.75;;;20.70;;
39344;SDS011;25061;51.954;6.996;2023-11-21T07:06:10;59.05;;;19.65;;
39344;SDS011;25061;51.954;6.996;2023-11-21T07:08:36;58.45;;;20.38;;
39344;SDS011;25061;51.954;6.996;2023-11-21T07:11:03;61.35;;;20.60;;
39344;SDS011;25061;51.954;6.996;2023-11-21T07:13:29;51.90;;;20.10;;
39344;SDS011;25061;51.954;6.996;2023-11-21T07:15:55;53.65;;;21.65;;
39344;SDS011;25061;51.954;6.996;2023-11-21T07:18:21;46.22;;;17.95;;
39344;SDS011;25061;51.954;6.996;2023-11-21T07:20:48;68.60;;;24.05;;
39344;SDS011;25061;51.954;6.996;2023-11-21T07:23:13;52.83;;;21.10;;
39344;SDS011;25061;51.954;6.996;2023-11-21T07:25:40;48.20;;;20.08;;
39344;SDS011;25061;51.954;6.996;2023-11-21T07:28:06;50.03;;;18.20;;
39344;SDS011;25061;51.954;6.996;2023-11-21T07:30:32;58.22;;;22.77;;
39344;SDS011;25061;51.954;6.996;2023-11-21T07:32:58;90.22;;;32.05;;
39344;SDS011;25061;51.954;6.996;2023-11-21T07:35:23;65.30;;;18.00;;
39344;SDS011;25061;51.954;6.996;2023-11-21T07:37:49;63.22;;;19.23;;
39344;SDS011;25061;51.954;6.996;2023-11-21T07:40:15;42.97;;;17.35;;
39344;SDS011;25061;51.954;6.996;2023-11-21T07:42:41;71.70;;;29.20;;
39344;SDS011;25061;51.954;6.996;2023-11-21T07:45:07;49.47;;;19.63;;
39344;SDS011;25061;51.954;6.996;2023-11-21T07:47:34;51.08;;;18.17;;
39344;SDS011;25061;51.954;6.996;2023-11-21T07:50:00;50.70;;;20.65;;
39344;SDS011;25061;51.954;6.996;2023-11-21T07:52:29;45.97;;;19.48;;
39344;SDS011;25061;51.954;6.996;2023-11-21T07:54:55;65.88;;;25.95;;
39344;SDS011;25061;51.954;6.996;2023-11-21T07:57:21;74.93;;;30.55;;
39344;SDS011;25061;51.954;6.996;2023-11-21T07:59:46;50.85;;;19.77;;
39344;SDS011;25061;51.954;6.996;2023-11-21T08:02:12;58.40;;;22.50;;
39344;SDS011;25061;51.954;6.996;2023-11-21T08:04:37;85.25;;;31.77;;
39344;SDS011;25061;51.954;6.996;2023-11-21T08:07:03;53.95;;;22.25;;
39344;SDS011;25061;51.954;6.996;2023-11-21T08:09:29;61.60;;;17.38;;
39344;SDS011;25061;51.954;6.996;2023-11-21T08:11:54;220.38;;;73.30;;
39344;SDS011;25061;51.954;6.996;2023-11-21T08:14:21;77.63;;;27.38;;
39344;SDS011;25061;51.954;6.996;2023-11-21T08:16:50;63.20;;;22.40;;
39344;SDS011;25061;51.954;6.996;2023-11-21T08:19:16;166.77;;;56.92;;
39344;SDS011;25061;51.954;6.996;2023-11-21T08:21:41;45.78;;;21.83;;
39344;SDS011;25061;51.954;6.996;2023-11-21T08:24:07;271.45;;;113.05;;
39344;SDS011;25061;51.954;6.996;2023-11-21T08:26:35;62.30;;;25.23;;
39344;SDS011;25061;51.954;6.996;2023-11-21T08:29:01;50.92;;;20.73;;
39344;SDS011;25061;51.954;6.996;2023-11-21T08:31:27;111.53;;;19.00;;
39344;SDS011;25061;51.954;6.996;2023-11-21T08:33:53;81.18;;;18.90;;
39344;SDS011;25061;51.954;6.996;2023-11-21T08:36:20;44.35;;;18.13;;
39344;SDS011;25061;51.954;6.996;2023-11-21T08:38:49;64.05;;;23.92;;
39344;SDS011;25061;51.954;6.996;2023-11-21T08:41:17;70.43;;;23.08;;
39344;SDS011;25061;51.954;6.996;2023-11-21T08:43:46;56.25;;;22.92;;
39344;SDS011;25061;51.954;6.996;2023-11-21T08:46:18;67.13;;;24.30;;
39344;SDS011;25061;51.954;6.996;2023-11-21T08:48:44;52.17;;;19.30;;
39344;SDS011;25061;51.954;6.996;2023-11-21T08:51:10;64.68;;;19.83;;
39344;SDS011;25061;51.954;6.996;2023-11-21T08:53:39;45.20;;;18.17;;
39344;SDS011;25061;51.954;6.996;2023-11-21T08:56:05;53.00;;;19.83;;
39344;SDS011;25061;51.954;6.996;2023-11-21T08:58:34;55.60;;;19.98;;
39344;SDS011;25061;51.954;6.996;2023-11-21T09:01:02;58.58;;;22.25;;
39344;SDS011;25061;51.954;6.996;2023-11-21T09:03:28;48.40;;;19.25;;
39344;SDS011;25061;51.954;6.996;2023-11-21T09:05:53;53.38;;;21.08;;
39344;SDS011;25061;51.954;6.996;2023-11-21T09:08:19;48.20;;;20.13;;
39344;SDS011;25061;51.954;6.996;2023-11-21T09:10:47;39.75;;;17.98;;
39344;SDS011;25061;51.954;6.996;2023-11-21T09:13:13;42.13;;;17.13;;
39344;SDS011;25061;51.954;6.996;2023-11-21T09:15:41;44.35;;;17.48;;
39344;SDS011;25061;51.954;6.996;2023-11-21T09:18:08;41.67;;;17.50;;
39344;SDS011;25061;51.954;6.996;2023-11-21T09:20:35;39.35;;;17.15;;
39344;SDS011;25061;51.954;6.996;2023-11-21T09:23:01;47.22;;;17.45;;
39344;SDS011;25061;51.954;6.996;2023-11-21T09:25:26;40.65;;;17.15;;
39344;SDS011;25061;51.954;6.996;2023-11-21T09:27:53;40.22;;;16.92;;
39344;SDS011;25061;51.954;6.996;2023-11-21T09:30:19;47.55;;;17.92;;
39344;SDS011;25061;51.954;6.996;2023-11-21T09:32:45;41.67;;;16.90;;
39344;SDS011;25061;51.954;6.996;2023-11-21T09:35:11;41.22;;;16.40;;
39344;SDS011;25061;51.954;6.996;2023-11-21T09:37:39;44.15;;;16.60;;
39344;SDS011;25061;51.954;6.996;2023-11-21T09:40:05;46.28;;;17.63;;
39344;SDS011;25061;51.954;6.996;2023-11-21T09:42:39;36.10;;;15.70;;
39344;SDS011;25061;51.954;6.996;2023-11-21T09:45:27;42.75;;;16.65;;
39344;SDS011;25061;51.954;6.996;2023-11-21T09:47:59;38.50;;;15.65;;
39344;SDS011;25061;51.954;6.996;2023-11-21T09:50:24;41.33;;;16.00;;
39344;SDS011;25061;51.954;6.996;2023-11-21T09:52:58;37.60;;;15.05;;
39344;SDS011;25061;51.954;6.996;2023-11-21T09:55:41;40.63;;;15.18;;
39344;SDS011;25061;51.954;6.996;2023-11-21T09:58:09;38.75;;;15.38;;
39344;SDS011;25061;51.954;6.996;2023-11-21T10:00:38;36.25;;;14.13;;
39344;SDS011;25061;51.954;6.996;2023-11-21T10:03:12;34.97;;;14.95;;
39344;SDS011;25061;51.954;6.996;2023-11-21T10:05:38;38.47;;;14.88;;
39344;SDS011;25061;51.954;6.996;2023-11-21T10:08:08;41.63;;;15.75;;
39344;SDS011;25061;51.954;6.996;2023-11-21T10:10:36;37.88;;;15.23;;
39344;SDS011;25061;51.954;6.996;2023-11-21T10:13:07;36.17;;;15.10;;
39344;SDS011;25061;51.954;6.996;2023-11-21T10:15:41;36.03;;;14.85;;
39344;SDS011;25061;51.954;6.996;2023-11-21T10:18:13;38.13;;;14.05;;
39344;SDS011;25061;51.954;6.996;2023-11-21T10:20:40;35.97;;;14.38;;
39344;SDS011;25061;51.954;6.996;2023-11-21T10:23:06;34.78;;;14.65;;
39344;SDS011;25061;51.954;6.996;2023-11-21T10:25:36;38.17;;;14.77;;
39344;SDS011;25061;51.954;6.996;2023-11-21T10:28:02;30.50;;;13.40;;
39344;SDS011;25061;51.954;6.996;2023-11-21T10:30:35;31.33;;;12.68;;
39344;SDS011;25061;51.954;6.996;2023-11-21T10:33:05;30.17;;;12.05;;
39344;SDS011;25061;51.954;6.996;2023-11-21T10:35:47;26.45;;;11.20;;
39344;SDS011;25061;51.954;6.996;2023-11-21T10:38:18;28.50;;;12.68;;
39344;SDS011;25061;51.954;6.996;2023-11-21T10:40:46;30.88;;;13.15;;
39344;SDS011;25061;51.954;6.996;2023-11-21T10:43:12;28.63;;;12.50;;
39344;SDS011;25061;51.954;6.996;2023-11-21T10:45:40;27.67;;;11.93;;
39344;SDS011;25061;51.954;6.996;2023-11-21T10:48:08;26.85;;;12.75;;
39344;SDS011;25061;51.954;6.996;2023-11-21T10:50:40;27.02;;;13.10;;
39344;SDS011;25061;51.954;6.996;2023-11-21T10:53:06;29.92;;;12.88;;
39344;SDS011;25061;51.954;6.996;2023-11-21T10:55:32;27.98;;;12.38;;
39344;SDS011;25061;51.954;6.996;2023-11-21T10:58:00;29.67;;;12.70;;
39344;SDS011;25061;51.954;6.996;2023-11-21T11:00:27;30.55;;;12.70;;
39344;SDS011;25061;51.954;6.996;2023-11-21T11:02:53;29.75;;;12.63;;
39344;SDS011;25061;51.954;6.996;2023-11-21T11:05:20;27.25;;;12.40;;
39344;SDS011;25061;51.954;6.996;2023-11-21T11:07:50;26.15;;;11.85;;
39344;SDS011;25061;51.954;6.996;2023-11-21T11:10:22;24.63;;;11.27;;
39344;SDS011;25061;51.954;6.996;2023-11-21T11:12:51;23.30;;;10.68;;
39344;SDS011;25061;51.954;6.996;2023-11-21T11:15:19;21.30;;;11.05;;
39344;SDS011;25061;51.954;6.996;2023-11-21T11:17:45;20.48;;;11.00;;
39344;SDS011;25061;51.954;6.996;2023-11-21T11:20:12;21.45;;;10.25;;
39344;SDS011;25061;51.954;6.996;2023-11-21T11:22:50;21.00;;;9.93;;
39344;SDS011;25061;51.954;6.996;2023-11-21T11:25:44;18.98;;;9.90;;
39344;SDS011;25061;51.954;6.996;2023-11-21T11:31:31;21.55;;;10.10;;
39344;SDS011;25061;51.954;6.996;2023-11-21T11:36:47;21.30;;;10.63;;
39344;SDS011;25061;51.954;6.996;2023-11-21T11:39:26;21.98;;;10.77;;
39344;SDS011;25061;51.954;6.996;2023-11-21T11:42:07;21.80;;;10.18;;
39344;SDS011;25061;51.954;6.996;2023-11-21T11:47:14;22.58;;;10.27;;
39344;SDS011;25061;51.954;6.996;2023-11-21T11:50:09;23.30;;;10.60;;
39344;SDS011;25061;51.954;6.996;2023-11-21T11:55:20;24.02;;;10.02;;
39344;SDS011;25061;51.954;6.996;2023-11-21T11:57:55;22.27;;;10.20;;
39344;SDS011;25061;51.954;6.996;2023-11-21T12:00:42;22.48;;;10.85;;
39344;SDS011;25061;51.954;6.996;2023-11-21T12:03:07;25.00;;;11.07;;
39344;SDS011;25061;51.954;6.996;2023-11-21T12:05:34;26.95;;;11.38;;
39344;SDS011;25061;51.954;6.996;2023-11-21T12:08:04;25.83;;;11.27;;
39344;SDS011;25061;51.954;6.996;2023-11-21T12:10:35;22.23;;;10.30;;
39344;SDS011;25061;51.954;6.996;2023-11-21T12:13:02;23.58;;;9.90;;
39344;SDS011;25061;51.954;6.996;2023-11-21T12:15:32;20.23;;;9.27;;
39344;SDS011;25061;51.954;6.996;2023-11-21T12:17:58;20.77;;;9.23;;
39344;SDS011;25061;51.954;6.996;2023-11-21T12:20:24;20.55;;;9.77;;
39344;SDS011;25061;51.954;6.996;2023-11-21T12:22:52;23.02;;;10.20;;
39344;SDS011;25061;51.954;6.996;2023-11-21T12:25:26;19.20;;;8.52;;
39344;SDS011;25061;51.954;6.996;2023-11-21T12:28:00;19.60;;;8.18;;
39344;SDS011;25061;51.954;6.996;2023-11-21T12:30:28;19.65;;;8.20;;
39344;SDS011;25061;51.954;6.996;2023-11-21T12:32:56;18.05;;;8.38;;
39344;SDS011;25061;51.954;6.996;2023-11-21T12:35:24;19.67;;;8.98;;
39344;SDS011;25061;51.954;6.996;2023-11-21T12:37:51;18.13;;;8.85;;
39344;SDS011;25061;51.954;6.996;2023-11-21T12:40:18;20.80;;;9.55;;
39344;SDS011;25061;51.954;6.996;2023-11-21T12:42:45;18.63;;;9.43;;
39344;SDS011;25061;51.954;6.996;2023-11-21T12:47:46;20.60;;;8.93;;
39344;SDS011;25061;51.954;6.996;2023-11-21T12:50:15;18.33;;;7.82;;
39344;SDS011;25061;51.954;6.996;2023-11-21T12:52:47;17.45;;;8.60;;
39344;SDS011;25061;51.954;6.996;2023-11-21T12:55:22;16.08;;;7.07;;
39344;SDS011;25061;51.954;6.996;2023-11-21T12:57:49;18.58;;;8.00;;
39344;SDS011;25061;51.954;6.996;2023-11-21T13:03:24;20.92;;;8.45;;
39344;SDS011;25061;51.954;6.996;2023-11-21T13:05:51;18.45;;;7.75;;
39344;SDS011;25061;51.954;6.996;2023-11-21T13:08:20;15.23;;;7.03;;
39344;SDS011;25061;51.954;6.996;2023-11-21T13:10:51;17.13;;;7.43;;
39344;SDS011;25061;51.954;6.996;2023-11-21T13:13:20;14.77;;;6.93;;
39344;SDS011;25061;51.954;6.996;2023-11-21T13:15:49;15.05;;;7.05;;
39344;SDS011;25061;51.954;6.996;2023-11-21T13:18:22;15.45;;;7.10;;
39344;SDS011;25061;51.954;6.996;2023-11-21T13:20:49;15.25;;;6.90;;
39344;SDS011;25061;51.954;6.996;2023-11-21T13:23:15;14.15;;;6.88;;
39344;SDS011;25061;51.954;6.996;2023-11-21T13:25:41;12.38;;;5.40;;
39344;SDS011;25061;51.954;6.996;2023-11-21T13:28:10;14.27;;;6.88;;
39344;SDS011;25061;51.954;6.996;2023-11-21T13:30:37;12.85;;;6.30;;
39344;SDS011;25061;51.954;6.996;2023-11-21T13:33:05;14.10;;;6.45;;
39344;SDS011;25061;51.954;6.996;2023-11-21T13:35:33;12.60;;;5.72;;
39344;SDS011;25061;51.954;6.996;2023-11-21T13:38:08;14.38;;;6.72;;
39344;SDS011;25061;51.954;6.996;2023-11-21T13:40:39;12.77;;;6.10;;
39344;SDS011;25061;51.954;6.996;2023-11-21T13:43:11;15.60;;;7.63;;
39344;SDS011;25061;51.954;6.996;2023-11-21T13:45:39;14.50;;;7.57;;
39344;SDS011;25061;51.954;6.996;2023-11-21T13:48:05;15.43;;;7.75;;
39344;SDS011;25061;51.954;6.996;2023-11-21T13:50:38;14.05;;;6.32;;
39344;SDS011;25061;51.954;6.996;2023-11-21T13:53:09;16.85;;;7.60;;
39344;SDS011;25061;51.954;6.996;2023-11-21T13:55:48;15.95;;;7.15;;
39344;SDS011;25061;51.954;6.996;2023-11-21T13:58:15;13.70;;;6.32;;
39344;SDS011;25061;51.954;6.996;2023-11-21T14:00:47;17.13;;;6.78;;
39344;SDS011;25061;51.954;6.996;2023-11-21T14:03:21;15.95;;;8.00;;
39344;SDS011;25061;51.954;6.996;2023-11-21T14:05:48;14.43;;;7.38;;
39344;SDS011;25061;51.954;6.996;2023-11-21T14:08:19;14.43;;;7.47;;
39344;SDS011;25061;51.954;6.996;2023-11-21T14:10:49;14.38;;;6.72;;
39344;SDS011;25061;51.954;6.996;2023-11-21T14:13:22;13.77;;;7.05;;
39344;SDS011;25061;51.954;6.996;2023-11-21T14:15:52;13.32;;;6.47;;
39344;SDS011;25061;51.954;6.996;2023-11-21T14:18:25;12.52;;;6.85;;
39344;SDS011;25061;51.954;6.996;2023-11-21T14:21:00;13.48;;;7.60;;
39344;SDS011;25061;51.954;6.996;2023-11-21T14:23:26;15.27;;;7.65;;
39344;SDS011;25061;51.954;6.996;2023-11-21T14:25:53;15.65;;;7.70;;
39344;SDS011;25061;51.954;6.996;2023-11-21T14:28:19;14.70;;;7.75;;
39344;SDS011;25061;51.954;6.996;2023-11-21T14:30:48;16.25;;;7.80;;
39344;SDS011;25061;51.954;6.996;2023-11-21T14:33:13;15.30;;;8.15;;
39344;SDS011;25061;51.954;6.996;2023-11-21T14:35:41;14.50;;;7.72;;
39344;SDS011;25061;51.954;6.996;2023-11-21T14:38:07;14.82;;;6.97;;
39344;SDS011;25061;51.954;6.996;2023-11-21T14:40:35;16.13;;;7.78;;
39344;SDS011;25061;51.954;6.996;2023-11-21T14:43:01;15.20;;;7.03;;
39344;SDS011;25061;51.954;6.996;2023-11-21T14:45:30;11.90;;;6.35;;
39344;SDS011;25061;51.954;6.996;2023-11-21T14:47:56;11.90;;;6.35;;
39344;SDS011;25061;51.954;6.996;2023-11-21T14:50:31;11.80;;;6.40;;
39344;SDS011;25061;51.954;6.996;2023-11-21T14:53:20;11.52;;;5.95;;
39344;SDS011;25061;51.954;6.996;2023-11-21T14:56:06;12.57;;;6.00;;
39344;SDS011;25061;51.954;6.996;2023-11-21T14:58:32;12.52;;;5.65;;
39344;SDS011;25061;51.954;6.996;2023-11-21T15:00:58;11.15;;;5.40;;
39344;SDS011;25061;51.954;6.996;2023-11-21T15:03:25;12.02;;;5.70;;
39344;SDS011;25061;51.954;6.996;2023-11-21T15:05:57;12.35;;;5.60;;
39344;SDS011;25061;51.954;6.996;2023-11-21T15:08:53;11.98;;;5.70;;
39344;SDS011;25061;51.954;6.996;2023-11-21T15:11:32;13.15;;;6.43;;
39344;SDS011;25061;51.954;6.996;2023-11-21T15:13:58;12.00;;;6.05;;
39344;SDS011;25061;51.954;6.996;2023-11-21T15:16:25;12.88;;;6.63;;
39344;SDS011;25061;51.954;6.996;2023-11-21T15:18:51;12.10;;;6.47;;
39344;SDS011;25061;51.954;6.996;2023-11-21T15:21:20;13.27;;;6.60;;
39344;SDS011;25061;51.954;6.996;2023-11-21T15:23:47;13.20;;;6.20;;
39344;SDS011;25061;51.954;6.996;2023-11-21T15:26:13;13.20;;;6.15;;
39344;SDS011;25061;51.954;6.996;2023-11-21T15:28:39;13.15;;;5.70;;
39344;SDS011;25061;51.954;6.996;2023-11-21T15:31:04;12.30;;;5.80;;
39344;SDS011;25061;51.954;6.996;2023-11-21T15:33:30;13.02;;;5.38;;
39344;SDS011;25061;51.954;6.996;2023-11-21T15:35:56;11.23;;;5.65;;
39344;SDS011;25061;51.954;6.996;2023-11-21T15:38:23;12.65;;;6.07;;
39344;SDS011;25061;51.954;6.996;2023-11-21T15:40:49;12.10;;;5.85;;
39344;SDS011;25061;51.954;6.996;2023-11-21T15:43:15;13.57;;;6.65;;
39344;SDS011;25061;51.954;6.996;2023-11-21T15:45:40;12.45;;;6.15;;
39344;SDS011;25061;51.954;6.996;2023-11-21T15:48:07;11.63;;;5.75;;
39344;SDS011;25061;51.954;6.996;2023-11-21T15:50:34;12.48;;;5.47;;
39344;SDS011;25061;51.954;6.996;2023-11-21T15:53:01;11.10;;;5.78;;
39344;SDS011;25061;51.954;6.996;2023-11-21T15:55:28;12.50;;;6.00;;
39344;SDS011;25061;51.954;6.996;2023-11-21T15:57:53;13.40;;;6.68;;
39344;SDS011;25061;51.954;6.996;2023-11-21T16:00:19;13.13;;;6.75;;
39344;SDS011;25061;51.954;6.996;2023-11-21T16:02:47;16.08;;;6.00;;
39344;SDS011;25061;51.954;6.996;2023-11-21T16:05:13;14.18;;;6.45;;
39344;SDS011;25061;51.954;6.996;2023-11-21T16:07:39;12.65;;;6.47;;
39344;SDS011;25061;51.954;6.996;2023-11-21T16:10:06;12.13;;;6.22;;
39344;SDS011;25061;51.954;6.996;2023-11-21T16:12:35;12.68;;;6.35;;
39344;SDS011;25061;51.954;6.996;2023-11-21T16:15:01;14.10;;;7.50;;
39344;SDS011;25061;51.954;6.996;2023-11-21T16:17:34;12.87;;;6.50;;
39344;SDS011;25061;51.954;6.996;2023-11-21T16:20:01;11.10;;;5.63;;
39344;SDS011;25061;51.954;6.996;2023-11-21T16:22:33;12.73;;;6.38;;
39344;SDS011;25061;51.954;6.996;2023-11-21T16:24:59;12.23;;;6.60;;
39344;SDS011;25061;51.954;6.996;2023-11-21T16:27:29;14.52;;;7.00;;
39344;SDS011;25061;51.954;6.996;2023-11-21T16:29:55;14.48;;;7.10;;
39344;SDS011;25061;51.954;6.996;2023-11-21T16:32:22;14.85;;;7.50;;
39344;SDS011;25061;51.954;6.996;2023-11-21T16:34:48;12.77;;;6.80;;
39344;SDS011;25061;51.954;6.996;2023-11-21T16:37:15;13.57;;;7.15;;
39344;SDS011;25061;51.954;6.996;2023-11-21T16:39:41;12.32;;;6.75;;
39344;SDS011;25061;51.954;6.996;2023-11-21T16:42:06;13.25;;;7.20;;
39344;SDS011;25061;51.954;6.996;2023-11-21T16:44:33;14.27;;;7.50;;
39344;SDS011;25061;51.954;6.996;2023-11-21T16:46:58;15.43;;;7.85;;
39344;SDS011;25061;51.954;6.996;2023-11-21T16:49:31;14.05;;;6.97;;
39344;SDS011;25061;51.954;6.996;2023-11-21T16:51:58;13.82;;;7.60;;
39344;SDS011;25061;51.954;6.996;2023-11-21T16:54:25;13.50;;;7.05;;
39344;SDS011;25061;51.954;6.996;2023-11-21T16:56:52;15.82;;;8.85;;
39344;SDS011;25061;51.954;6.996;2023-11-21T16:59:18;14.15;;;8.40;;
39344;SDS011;25061;51.954;6.996;2023-11-21T17:01:45;14.50;;;8.20;;
39344;SDS011;25061;51.954;6.996;2023-11-21T17:04:12;15.90;;;9.00;;
39344;SDS011;25061;51.954;6.996;2023-11-21T17:06:40;14.93;;;8.27;;
39344;SDS011;25061;51.954;6.996;2023-11-21T17:09:06;14.90;;;8.95;;
39344;SDS011;25061;51.954;6.996;2023-11-21T17:11:38;16.23;;;8.35;;
39344;SDS011;25061;51.954;6.996;2023-11-21T17:14:06;16.70;;;7.95;;
39344;SDS011;25061;51.954;6.996;2023-11-21T17:16:33;16.75;;;9.38;;
39344;SDS011;25061;51.954;6.996;2023-11-21T17:19:00;14.45;;;8.13;;
39344;SDS011;25061;51.954;6.996;2023-11-21T17:21:27;14.52;;;8.32;;
39344;SDS011;25061;51.954;6.996;2023-11-21T17:23:53;16.90;;;8.68;;
39344;SDS011;25061;51.954;6.996;2023-11-21T17:26:20;14.82;;;8.52;;
39344;SDS011;25061;51.954;6.996;2023-11-21T17:28:45;16.05;;;9.40;;
39344;SDS011;25061;51.954;6.996;2023-11-21T17:31:11;15.43;;;8.50;;
39344;SDS011;25061;51.954;6.996;2023-11-21T17:33:37;17.38;;;9.55;;
39344;SDS011;25061;51.954;6.996;2023-11-21T17:36:03;21.10;;;10.00;;
39344;SDS011;25061;51.954;6.996;2023-11-21T17:38:30;16.58;;;9.85;;
39344;SDS011;25061;51.954;6.996;2023-11-21T17:40:55;16.85;;;9.13;;
39344;SDS011;25061;51.954;6.996;2023-11-21T17:43:21;17.10;;;9.38;;
39344;SDS011;25061;51.954;6.996;2023-11-21T17:45:47;16.45;;;8.68;;
39344;SDS011;25061;51.954;6.996;2023-11-21T17:48:13;16.35;;;9.07;;
39344;SDS011;25061;51.954;6.996;2023-11-21T17:50:39;16.63;;;8.82;;
39344;SDS011;25061;51.954;6.996;2023-11-21T17:53:05;15.50;;;8.40;;
39344;SDS011;25061;51.954;6.996;2023-11-21T17:55:33;15.55;;;8.50;;
39344;SDS011;25061;51.954;6.996;2023-11-21T17:57:59;16.67;;;8.98;;
39344;SDS011;25061;51.954;6.996;2023-11-21T18:00:26;16.33;;;9.35;;
39344;SDS011;25061;51.954;6.996;2023-11-21T18:02:52;15.65;;;8.85;;
39344;SDS011;25061;51.954;6.996;2023-11-21T18:05:18;15.10;;;8.85;;
39344;SDS011;25061;51.954;6.996;2023-11-21T18:07:46;15.77;;;8.88;;
39344;SDS011;25061;51.954;6.996;2023-11-21T18:10:12;15.85;;;9.13;;
39344;SDS011;25061;51.954;6.996;2023-11-21T18:12:37;15.18;;;9.10;;
39344;SDS011;25061;51.954;6.996;2023-11-21T18:15:04;21.65;;;10.80;;
39344;SDS011;25061;51.954;6.996;2023-11-21T18:17:30;20.05;;;11.10;;
39344;SDS011;25061;51.954;6.996;2023-11-21T18:19:56;18.73;;;11.27;;
39344;SDS011;25061;51.954;6.996;2023-11-21T18:22:22;18.90;;;10.63;;
39344;SDS011;25061;51.954;6.996;2023-11-21T18:24:50;17.60;;;9.75;;
39344;SDS011;25061;51.954;6.996;2023-11-21T18:27:19;20.27;;;10.07;;
39344;SDS011;25061;51.954;6.996;2023-11-21T18:29:46;20.75;;;10.02;;
39344;SDS011;25061;51.954;6.996;2023-11-21T18:32:11;18.65;;;11.60;;
39344;SDS011;25061;51.954;6.996;2023-11-21T18:34:40;18.63;;;10.65;;
39344;SDS011;25061;51.954;6.996;2023-11-21T18:37:08;21.48;;;10.38;;
39344;SDS011;25061;51.954;6.996;2023-11-21T18:39:34;16.48;;;9.15;;
39344;SDS011;25061;51.954;6.996;2023-11-21T18:41:59;15.93;;;9.20;;
39344;SDS011;25061;51.954;6.996;2023-11-21T18:44:25;16.17;;;9.25;;
39344;SDS011;25061;51.954;6.996;2023-11-21T18:46:50;17.67;;;8.73;;
39344;SDS011;25061;51.954;6.996;2023-11-21T18:49:17;14.35;;;8.15;;
39344;SDS011;25061;51.954;6.996;2023-11-21T18:51:46;15.15;;;8.63;;
39344;SDS011;25061;51.954;6.996;2023-11-21T18:54:15;15.38;;;8.18;;
39344;SDS011;25061;51.954;6.996;2023-11-21T18:56:41;17.27;;;8.77;;
39344;SDS011;25061;51.954;6.996;2023-11-21T18:59:10;18.73;;;8.73;;
39344;SDS011;25061;51.954;6.996;2023-11-21T19:01:36;16.58;;;9.35;;
39344;SDS011;25061;51.954;6.996;2023-11-21T19:04:01;15.02;;;8.18;;
39344;SDS011;25061;51.954;6.996;2023-11-21T19:06:27;16.30;;;8.27;;
39344;SDS011;25061;51.954;6.996;2023-11-21T19:08:53;15.63;;;8.02;;
39344;SDS011;25061;51.954;6.996;2023-11-21T19:11:19;14.40;;;7.82;;
39344;SDS011;25061;51.954;6.996;2023-11-21T19:13:48;12.82;;;7.57;;
39344;SDS011;25061;51.954;6.996;2023-11-21T19:16:15;14.30;;;7.50;;
39344;SDS011;25061;51.954;6.996;2023-11-21T19:18:41;13.85;;;7.80;;
39344;SDS011;25061;51.954;6.996;2023-11-21T19:21:14;15.57;;;8.27;;
39344;SDS011;25061;51.954;6.996;2023-11-21T19:23:41;14.98;;;7.18;;
39344;SDS011;25061;51.954;6.996;2023-11-21T19:26:16;16.20;;;7.65;;
39344;SDS011;25061;51.954;6.996;2023-11-21T19:28:42;12.85;;;6.80;;
39344;SDS011;25061;51.954;6.996;2023-11-21T19:31:18;13.55;;;7.15;;
39344;SDS011;25061;51.954;6.996;2023-11-21T19:33:45;13.10;;;6.95;;
39344;SDS011;25061;51.954;6.996;2023-11-21T19:36:14;13.68;;;6.80;;
39344;SDS011;25061;51.954;6.996;2023-11-21T19:38:41;15.20;;;7.50;;
39344;SDS011;25061;51.954;6.996;2023-11-21T19:41:16;11.35;;;6.28;;
39344;SDS011;25061;51.954;6.996;2023-11-21T19:43:46;12.38;;;6.35;;
39344;SDS011;25061;51.954;6.996;2023-11-21T19:46:14;16.42;;;7.25;;
39344;SDS011;25061;51.954;6.996;2023-11-21T19:48:41;16.73;;;7.78;;
39344;SDS011;25061;51.954;6.996;2023-11-21T19:51:07;15.30;;;7.45;;
39344;SDS011;25061;51.954;6.996;2023-11-21T19:53:34;11.43;;;6.28;;
39344;SDS011;25061;51.954;6.996;2023-11-21T19:56:05;11.35;;;5.82;;
39344;SDS011;25061;51.954;6.996;2023-11-21T19:58:34;13.02;;;6.50;;
39344;SDS011;25061;51.954;6.996;2023-11-21T20:01:00;14.20;;;6.07;;
39344;SDS011;25061;51.954;6.996;2023-11-21T20:03:26;12.88;;;6.40;;
39344;SDS011;25061;51.954;6.996;2023-11-21T20:05:52;13.05;;;6.43;;
39344;SDS011;25061;51.954;6.996;2023-11-21T20:08:18;13.60;;;7.43;;
39344;SDS011;25061;51.954;6.996;2023-11-21T20:10:44;13.77;;;6.82;;
39344;SDS011;25061;51.954;6.996;2023-11-21T20:13:11;13.13;;;6.65;;
39344;SDS011;25061;51.954;6.996;2023-11-21T20:15:38;14.60;;;7.63;;
39344;SDS011;25061;51.954;6.996;2023-11-21T20:18:04;18.65;;;9.75;;
39344;SDS011;25061;51.954;6.996;2023-11-21T20:20:30;25.73;;;12.20;;